Gruyeres Airport LSGT

Flugplatz Daten

Name: Gruyeres Airport

Ident: LSGT

Lat: 46,59420013

Long: 7,094439983

Platzhöhe: 2257 ft

IataCode:

City:

Metar

2021/07/28 22:57
KMMT 282257Z 00000KT 10SM SCT040 SCT250 33/24 A2993 RMK AO2A WIND ALSGT TP/DP ESTMD SLPNO RVRNO PNO $

Taf

Gewünschte Webcam nicht vorhanden? Dann fügen Sie eine hinzu. Sie wird dann so schnell wie möglich freigeschaltet
Url: Title: